Time;durP1;ratioP1;P1;durP2;ratioP2;P2;SDS_P1;SDS_P2;PMS_P1;PMS_P2;Temp;Humidity;BMP_temperature;BMP_pressure;BME280_temperature;BME280_humidity;BME280_pressure;Samples;Min_cycle;Max_cycle;Signal;HPM_P1;HPM_P2
2021/09/21 00:08:36;;;;;;;3.28;1.80;;;19.10;65.10;;;;;;20827055;28;20044;-57
2021/09/21 00:18:37;;;;;;;3.20;1.75;;;19.10;65.10;;;;;;20826289;28;20404;-53
2021/09/21 00:28:38;;;;;;;5.25;2.17;;;19.00;65.00;;;;;;20824525;28;20041;-56
2021/09/21 00:38:38;;;;;;;4.00;2.33;;;19.10;65.00;;;;;;20825065;28;20095;-54
2021/09/21 00:48:39;;;;;;;3.88;1.80;;;19.00;64.80;;;;;;20824140;28;20028;-53
2021/09/21 00:58:39;;;;;;;5.22;2.35;;;19.10;64.80;;;;;;20835236;23;20029;-58
2021/09/21 01:08:41;;;;;;;4.45;2.05;;;19.00;64.80;;;;;;20754252;28;20040;-57
2021/09/21 01:18:43;;;;;;;3.65;2.03;;;19.00;64.60;;;;;;20795604;28;20052;-60
2021/09/21 01:28:44;;;;;;;3.72;2.15;;;19.00;64.50;;;;;;20820219;28;20532;-59
2021/09/21 01:38:45;;;;;;;3.65;1.63;;;19.00;64.50;;;;;;20813996;28;20029;-56
2021/09/21 01:48:46;;;;;;;6.95;1.85;;;19.00;64.30;;;;;;20819154;28;20435;-60
2021/09/21 01:58:47;;;;;;;4.30;2.38;;;19.00;64.30;;;;;;20818228;28;20046;-59
2021/09/21 02:08:48;;;;;;;4.97;1.80;;;19.00;64.30;;;;;;20813102;28;20045;-59
2021/09/21 02:18:49;;;;;;;4.68;1.95;;;19.00;64.20;;;;;;20817296;28;20131;-59
2021/09/21 02:28:50;;;;;;;3.92;1.70;;;19.00;64.00;;;;;;20832256;28;20054;-60
2021/09/21 02:38:50;;;;;;;2.45;1.48;;;18.90;64.10;;;;;;20833282;28;20400;-57
2021/09/21 02:48:51;;;;;;;3.00;1.65;;;18.90;64.00;;;;;;20832436;28;20029;-55
2021/09/21 02:58:51;;;;;;;3.40;1.98;;;18.90;64.20;;;;;;20831841;28;20077;-61
2021/09/21 03:08:58;;;;;;;4.90;1.75;;;18.90;64.00;;;;;;20831415;28;20029;-61
2021/09/21 03:18:58;;;;;;;3.58;1.88;;;18.90;63.90;;;;;;20818056;28;20064;-60
2021/09/21 03:28:59;;;;;;;4.50;1.73;;;18.90;63.90;;;;;;20755180;28;20034;-58
2021/09/21 03:38:59;;;;;;;3.03;1.88;;;18.90;63.80;;;;;;20736146;28;20042;-56
2021/09/21 03:49:00;;;;;;;3.92;2.10;;;18.90;63.60;;;;;;20749495;28;20116;-59
2021/09/21 03:59:00;;;;;;;5.38;1.60;;;18.90;63.60;;;;;;20734514;28;20037;-59
2021/09/21 04:09:02;;;;;;;2.78;1.48;;;18.90;63.60;;;;;;20731717;28;20038;-59
2021/09/21 04:19:02;;;;;;;3.13;2.03;;;18.90;63.50;;;;;;20729037;28;20030;-59
2021/09/21 04:29:03;;;;;;;3.83;1.92;;;18.80;63.40;;;;;;20742910;28;20064;-59
2021/09/21 04:39:04;;;;;;;4.20;1.88;;;18.80;63.40;;;;;;20731285;28;20409;-59
2021/09/21 04:49:05;;;;;;;4.05;2.42;;;18.80;63.20;;;;;;20729766;28;20097;-59
2021/09/21 04:59:05;;;;;;;3.47;2.40;;;18.80;63.30;;;;;;20730212;28;20060;-59
2021/09/21 05:09:12;;;;;;;4.15;2.20;;;18.80;63.10;;;;;;20756780;28;20465;-59
2021/09/21 05:19:12;;;;;;;6.40;2.15;;;18.80;63.20;;;;;;20734578;28;20042;-59
2021/09/21 05:29:13;;;;;;;2.95;1.92;;;18.80;63.10;;;;;;20733207;28;20029;-59
2021/09/21 05:39:14;;;;;;;9.55;3.17;;;18.80;63.00;;;;;;20728836;28;20026;-59
2021/09/21 05:49:15;;;;;;;11.52;3.85;;;18.70;63.30;;;;;;20734273;28;20026;-60
2021/09/21 05:59:16;;;;;;;13.63;3.65;;;18.70;63.20;;;;;;20803622;28;20040;-59
2021/09/21 06:09:16;;;;;;;19.75;5.10;;;18.70;63.20;;;;;;20764444;28;20033;-59
2021/09/21 06:19:17;;;;;;;20.27;5.53;;;18.80;63.60;;;;;;20807643;28;20428;-59
2021/09/21 06:29:18;;;;;;;14.00;5.63;;;18.70;63.70;;;;;;20816435;28;20021;-59
2021/09/21 06:39:18;;;;;;;13.03;5.10;;;18.70;63.60;;;;;;20797029;28;20034;-59
2021/09/21 06:49:19;;;;;;;12.85;5.45;;;18.80;63.70;;;;;;20734704;28;20057;-60
2021/09/21 06:59:19;;;;;;;14.48;4.78;;;18.70;63.60;;;;;;20760988;28;20037;-60
2021/09/21 07:09:20;;;;;;;21.92;5.60;;;18.80;63.60;;;;;;20748309;28;20018;-59
2021/09/21 07:19:20;;;;;;;14.82;5.35;;;18.90;63.50;;;;;;20745953;28;20562;-59
2021/09/21 07:29:21;;;;;;;15.63;5.03;;;18.90;63.30;;;;;;20824506;28;20120;-60
2021/09/21 07:39:22;;;;;;;12.63;4.63;;;18.90;63.40;;;;;;20807358;28;20107;-59
2021/09/21 07:49:22;;;;;;;10.88;4.68;;;19.00;63.40;;;;;;20842396;28;20030;-59
2021/09/21 07:59:23;;;;;;;11.80;3.78;;;19.00;63.70;;;;;;20825578;28;20038;-58
2021/09/21 08:09:23;;;;;;;15.43;4.53;;;19.00;63.40;;;;;;20801118;28;20038;-59
2021/09/21 08:19:25;;;;;;;28.98;5.43;;;19.10;63.40;;;;;;20736504;28;20473;-57
2021/09/21 08:29:26;;;;;;;21.65;4.82;;;19.30;62.20;;;;;;20738168;28;20037;-58
2021/09/21 08:39:27;;;;;;;9.82;3.58;;;19.40;60.90;;;;;;20765825;28;20392;-57
2021/09/21 08:49:27;;;;;;;6.20;3.47;;;19.40;60.50;;;;;;20765008;28;20030;-57
2021/09/21 08:59:36;;;;;;;12.63;3.00;;;19.50;59.80;;;;;;20726811;28;20108;-58
2021/09/21 09:09:39;;;;;;;;;;;19.60;59.50;;;;;;20770338;28;20393;-58
2021/09/21 09:19:49;;;;;;;7.32;3.15;;;19.60;58.40;;;;;;20754813;28;19917;-59
2021/09/21 09:29:59;;;;;;;8.05;2.55;;;19.70;57.70;;;;;;20744906;28;20023;-57
2021/09/21 09:40:01;;;;;;;7.47;3.22;;;19.70;57.00;;;;;;20757414;28;20037;-56
2021/09/21 09:50:09;;;;;;;4.18;2.28;;;19.70;56.90;;;;;;20760048;28;20033;-58
2021/09/21 10:00:10;;;;;;;5.50;2.30;;;19.80;56.60;;;;;;20734098;28;20164;-56
2021/09/21 10:10:11;;;;;;;7.80;2.20;;;19.70;55.80;;;;;;20738225;28;20036;-57
2021/09/21 10:20:13;;;;;;;7.25;2.50;;;19.70;56.30;;;;;;20766517;28;20030;-56
2021/09/21 10:30:14;;;;;;;6.28;2.13;;;19.80;55.60;;;;;;20791178;28;20467;-55
2021/09/21 10:40:15;;;;;;;6.35;2.15;;;19.80;55.60;;;;;;20799828;28;20027;-55
2021/09/21 10:50:17;;;;;;;4.93;1.70;;;19.80;55.50;;;;;;20820449;28;20033;-58
2021/09/21 11:00:23;;;;;;;3.20;1.52;;;19.80;55.20;;;;;;20822655;28;20126;-58
2021/09/21 11:10:36;;;;;;;5.22;2.85;;;19.70;55.10;;;;;;20824641;28;20036;-58
2021/09/21 11:21:05;;;;;;;3.65;1.63;;;19.70;54.40;;;;;;20820169;28;20040;-58
2021/09/21 11:31:06;;;;;;;3.73;2.13;;;19.80;55.00;;;;;;20793084;28;20559;-59
2021/09/21 11:41:08;;;;;;;7.60;2.08;;;19.70;54.50;;;;;;20744663;28;20037;-58
2021/09/21 11:51:08;;;;;;;3.70;1.70;;;19.80;53.90;;;;;;20764931;28;20037;-57
2021/09/21 12:01:09;;;;;;;4.60;2.27;;;19.70;54.40;;;;;;20825990;28;20480;-58
2021/09/21 12:11:14;;;;;;;5.15;1.95;;;19.80;54.60;;;;;;20826706;28;20463;-58
2021/09/21 12:21:17;;;;;;;6.78;2.08;;;19.90;54.50;;;;;;20824407;28;20407;-57
2021/09/21 12:31:17;;;;;;;7.95;2.00;;;19.90;54.70;;;;;;20824440;28;20575;-59
2021/09/21 12:41:18;;;;;;;3.03;1.55;;;19.90;54.20;;;;;;20776717;28;20053;-59
2021/09/21 12:51:18;;;;;;;5.95;1.77;;;19.90;54.60;;;;;;20750099;28;20101;-60
2021/09/21 13:01:19;;;;;;;3.53;1.85;;;20.00;54.10;;;;;;20762916;28;20084;-59
2021/09/21 13:11:19;;;;;;;4.70;1.60;;;19.90;54.10;;;;;;20733302;28;20141;-60
2021/09/21 13:21:21;;;;;;;4.82;2.25;;;19.80;54.50;;;;;;20729275;28;20092;-60
2021/09/21 13:31:21;;;;;;;3.03;1.40;;;19.70;54.90;;;;;;20729987;28;20121;-60
2021/09/21 13:41:22;;;;;;;5.38;1.58;;;19.70;55.20;;;;;;20738165;23;20072;-62
2021/09/21 13:51:22;;;;;;;2.60;1.50;;;19.50;55.50;;;;;;20715790;28;20021;-60
2021/09/21 14:01:23;;;;;;;2.72;1.63;;;19.50;55.70;;;;;;20725363;28;20503;-61
2021/09/21 14:11:24;;;;;;;2.55;1.42;;;19.40;56.00;;;;;;20737339;28;20477;-62
2021/09/21 14:21:25;;;;;;;2.58;1.13;;;19.40;56.10;;;;;;20736852;28;20040;-61
2021/09/21 14:31:26;;;;;;;3.73;1.77;;;19.40;56.10;;;;;;20754362;28;20033;-60
2021/09/21 14:41:26;;;;;;;2.85;1.42;;;19.30;56.40;;;;;;20753490;28;20839;-61
2021/09/21 14:51:27;;;;;;;4.60;1.35;;;19.30;56.40;;;;;;20738002;28;20664;-61
2021/09/21 15:01:28;;;;;;;2.53;1.42;;;19.30;56.80;;;;;;20703436;28;20038;-62
2021/09/21 15:11:28;;;;;;;5.20;1.90;;;19.40;57.00;;;;;;20711428;28;20485;-58
2021/09/21 15:21:29;;;;;;;6.03;1.35;;;19.30;57.70;;;;;;20714112;28;20389;-60
2021/09/21 15:31:30;;;;;;;18.13;1.73;;;19.30;57.70;;;;;;20693898;28;20133;-58
2021/09/21 15:41:30;;;;;;;6.87;1.33;;;19.30;57.90;;;;;;20710949;28;20109;-59
2021/09/21 15:51:31;;;;;;;4.18;1.42;;;19.30;58.00;;;;;;20704328;28;20457;-58
2021/09/21 16:01:32;;;;;;;3.55;1.65;;;19.20;58.00;;;;;;20701663;28;20042;-60
2021/09/21 16:11:32;;;;;;;6.30;1.40;;;19.30;58.10;;;;;;20745965;28;20396;-59
2021/09/21 16:21:33;;;;;;;3.17;1.45;;;19.30;58.30;;;;;;20706442;28;20084;-59
2021/09/21 16:31:34;;;;;;;3.85;2.17;;;19.20;58.50;;;;;;20685085;28;20397;-59
2021/09/21 16:41:36;;;;;;;5.47;2.22;;;19.30;58.60;;;;;;20713095;28;20520;-62
2021/09/21 16:51:36;;;;;;;10.82;2.33;;;19.20;58.90;;;;;;20693433;28;20362;-61
2021/09/21 17:01:38;;;;;;;5.70;2.13;;;19.20;58.70;;;;;;20681951;28;20073;-61
2021/09/21 17:11:39;;;;;;;6.32;2.72;;;19.20;58.70;;;;;;20719961;28;20124;-59
2021/09/21 17:21:41;;;;;;;5.70;1.98;;;19.20;58.90;;;;;;20674631;28;20053;-59
2021/09/21 17:31:41;;;;;;;12.88;2.42;;;19.40;57.50;;;;;;20727504;28;20028;-62
2021/09/21 17:41:50;;;;;;;6.88;2.28;;;19.50;56.20;;;;;;20692281;28;20062;-60
2021/09/21 17:51:51;;;;;;;3.80;1.70;;;19.60;55.60;;;;;;20676555;28;20042;-62
2021/09/21 18:01:52;;;;;;;13.05;2.67;;;19.40;55.80;;;;;;20679505;28;20566;-62
2021/09/21 18:11:53;;;;;;;9.85;2.30;;;19.30;57.80;;;;;;20698730;28;20556;-64
2021/09/21 18:22:24;;;;;;;9.68;2.20;;;19.20;59.70;;;;;;20653663;28;20026;-62
2021/09/21 18:32:25;;;;;;;12.88;2.58;;;19.20;60.20;;;;;;20700511;28;20033;-62
2021/09/21 18:42:26;;;;;;;10.77;2.75;;;19.20;60.70;;;;;;20733316;28;20033;-64
2021/09/21 18:52:26;;;;;;;7.30;2.45;;;19.30;61.70;;;;;;20715016;28;20031;-63
2021/09/21 19:02:27;;;;;;;16.67;3.88;;;19.30;61.80;;;;;;20698187;28;20171;-60
2021/09/21 19:12:28;;;;;;;18.85;3.30;;;19.30;61.60;;;;;;20724991;28;20555;-59
2021/09/21 19:22:28;;;;;;;7.60;2.35;;;19.30;61.70;;;;;;20685356;28;20034;-62
2021/09/21 19:32:29;;;;;;;14.30;3.85;;;19.20;61.90;;;;;;20725520;28;20038;-63
2021/09/21 19:42:30;;;;;;;11.77;2.80;;;19.20;62.00;;;;;;20684477;28;20035;-61
2021/09/21 19:52:30;;;;;;;14.00;2.50;;;19.20;62.20;;;;;;20684395;28;20465;-59
2021/09/21 20:02:31;;;;;;;9.50;2.75;;;19.20;62.10;;;;;;20685470;28;20572;-62
2021/09/21 20:12:31;;;;;;;4.53;2.05;;;19.20;62.00;;;;;;20672434;28;20022;-62
2021/09/21 20:22:33;;;;;;;7.68;2.55;;;19.20;61.90;;;;;;20666471;28;20464;-61
2021/09/21 20:32:34;;;;;;;16.10;4.80;;;19.20;61.70;;;;;;20705825;28;20089;-61
2021/09/21 20:42:36;;;;;;;11.88;3.05;;;19.10;62.10;;;;;;20682653;28;20038;-61
2021/09/21 20:52:36;;;;;;;11.15;2.42;;;19.10;62.20;;;;;;20687969;28;20049;-60
2021/09/21 21:02:37;;;;;;;6.68;2.50;;;19.10;62.80;;;;;;20687294;28;20559;-60
2021/09/21 21:12:38;;;;;;;7.90;2.30;;;19.10;62.80;;;;;;20693391;28;20635;-60
2021/09/21 21:22:38;;;;;;;6.65;1.90;;;19.10;62.80;;;;;;20700145;28;20049;-60
2021/09/21 21:32:39;;;;;;;7.63;2.22;;;19.10;62.70;;;;;;20700213;28;20034;-60
2021/09/21 21:42:40;;;;;;;12.60;4.13;;;19.10;62.40;;;;;;20701863;28;20038;-60
2021/09/21 21:52:41;;;;;;;3.47;2.00;;;19.00;62.30;;;;;;20749712;28;20091;-60
2021/09/21 22:02:42;;;;;;;5.15;1.60;;;19.00;62.20;;;;;;20715135;28;20472;-60
2021/09/21 22:12:43;;;;;;;7.72;1.58;;;19.00;62.20;;;;;;20725771;28;20089;-60
2021/09/21 22:22:44;;;;;;;3.10;1.75;;;19.00;62.20;;;;;;20735333;28;20113;-63
2021/09/21 22:32:46;;;;;;;4.00;2.08;;;18.90;62.00;;;;;;20737547;28;20543;-62
2021/09/21 22:42:46;;;;;;;2.95;1.63;;;18.90;62.10;;;;;;20747497;28;20056;-63
2021/09/21 22:52:48;;;;;;;3.45;1.80;;;18.90;62.00;;;;;;20748371;28;20022;-60
2021/09/21 23:02:49;;;;;;;2.67;1.45;;;18.90;62.00;;;;;;20750885;28;20041;-63
2021/09/21 23:12:49;;;;;;;4.65;1.67;;;18.90;62.00;;;;;;20751145;28;20111;-62
2021/09/21 23:22:50;;;;;;;5.65;2.05;;;18.90;62.00;;;;;;20750275;28;20029;-62
2021/09/21 23:32:50;;;;;;;5.00;1.88;;;18.90;61.90;;;;;;20744626;28;20042;-63
2021/09/21 23:42:52;;;;;;;2.90;1.75;;;18.90;62.40;;;;;;20747669;28;20049;-62
2021/09/21 23:52:52;;;;;;;2.75;1.98;;;18.90;61.90;;;;;;20746289;28;20084;-62
